McGees Mills, Pennsylvania
Current Conditions -  °F | °C
As of 6:54 AM on Friday 28 Nov 2014 (Local Time) from KFIG Reporting Station
Clear Clear  
Wind Chill: 14°   Ceiling: Unl
Heat Index: 23°   Visibility: 10mi
Dew Point: 16°   Wind: 8mph
Humidity: 74%   Direction: 290°WNW
Pressure: 30.2"   Gusts: NA
Location:  40.9103°N, 78.7273°W
Report Text: KFIG 281154Z AUTO 29007KT 10SM CLR M05/M09 A3020 RMK AO2 SNE1058 SLP247 P0000 60000 70002 T10501089 11022 21050 53018
Loading
Personal Weather Stations






























Interactive Weather Map New forecast layout! Learn more

10-Day Weather Forecast

Advertisements
Track Severe Weather on mobile